Airfield :
LOGIN :

Register | Disclaimer

   EN    FR    IT 

 










Legend :    VFR   Marginal VFR   IFR   Intensive IFR   Very Intensive IFR
Visi :
Ceiling :
>= 8 km
>= 3000ft
5 to 8 km
1000 to 3000 ft
1500m to 5 km
500 to 1000 ft
800 to 1500m
200 to 500 ft
< 800m
< 200 ft
Symbols :   Thunderstorms  Fog  Heavy snow  Heavy precipitations  Wind > 20 kt
SIGMETs :     Misc.  Thunderstorms  Icing  Turbulence  Mountain Waves  Volcanic Ashes






- Airport Elevation : 935 ft


EBFS - Florennes

CURRENT METAR :
  • 090525Z AUTO 07003KT 9999 NCD 22/13 Q1018 BLU

EXPIRED METARs :
  • 090455Z AUTO 07003KT 9999 FEW120/// 22/13 Q1018 BLU
  • 090425Z AUTO 07003KT 9999 FEW120/// 22/13 Q1018 BLU
  • 090421Z AUTO 07003KT 9999 FEW120/// 21/13 Q1018 BLU
  • 090355Z AUTO 07003KT 9999 FEW150/// 22/12 Q1018 BLU
  • 090325Z AUTO 09004KT 9999 SCT180/// 23/12 Q1018 BLU
  • 090255Z AUTO VRB02KT 9999 OVC190/// 24/12 Q1018 BLU

Expired Forecast.



MET'MAP, your aeronautical weather chart ! - Copyright ORBIFLY December 2007 - Disclaimer

ORBIFLY MET'MAP TEAM :

Programming & Development : Alexandra Zaïnal
Concept & original design : Baudouin d'Aumeries
Assistance for programming : Marc-Olivier Méhu
Technical & hardware support : Manuel Goepfert

Contact : metmap@orbifly.com




SOURCES & CREDITS :

   NOAA